Time;durP1;ratioP1;P1;durP2;ratioP2;P2;SDS_P1;SDS_P2;PMS_P1;PMS_P2;Temp;Humidity;BMP_temperature;BMP_pressure;BME280_temperature;BME280_humidity;BME280_pressure;Samples;Min_cycle;Max_cycle;Signal;HPM_P1;HPM_P2
2023/09/21 00:01:00;;;;;;;0.52;0.30;;;23.70;77.00;;;;;;6337008;28;20040;-58
2023/09/21 00:04:01;;;;;;;0.28;0.20;;;23.80;77.10;;;;;;6322446;28;20040;-58
2023/09/21 00:07:03;;;;;;;0.52;0.32;;;23.80;77.40;;;;;;6315385;28;20606;-58
2023/09/21 00:10:06;;;;;;;0.68;0.38;;;23.50;77.20;;;;;;6318293;28;20120;-58
2023/09/21 00:13:09;;;;;;;0.38;0.25;;;23.80;77.30;;;;;;6316333;28;20074;-58
2023/09/21 00:16:12;;;;;;;0.57;0.30;;;23.80;77.60;;;;;;6315166;28;20783;-58
2023/09/21 00:19:13;;;;;;;0.57;0.30;;;23.80;77.50;;;;;;6313731;28;20044;-59
2023/09/21 00:22:15;;;;;;;0.20;0.20;;;23.70;77.50;;;;;;6323579;28;20051;-59
2023/09/21 00:25:17;;;;;;;0.30;0.20;;;23.70;77.70;;;;;;6337046;28;20100;-58
2023/09/21 00:28:19;;;;;;;0.25;0.25;;;23.70;77.60;;;;;;6337083;28;20058;-58
2023/09/21 00:31:21;;;;;;;0.47;0.30;;;23.80;77.50;;;;;;6331620;28;20508;-58
2023/09/21 00:34:23;;;;;;;0.28;0.28;;;23.80;77.40;;;;;;6306758;28;20082;-58
2023/09/21 00:37:25;;;;;;;0.20;0.20;;;23.70;77.50;;;;;;6316787;28;20509;-58
2023/09/21 00:40:28;;;;;;;0.73;0.40;;;24.30;75.60;;;;;;6336257;28;20048;-58
2023/09/21 00:43:33;;;;;;;1.20;0.20;;;23.90;77.50;;;;;;6288159;28;20044;-58
2023/09/21 00:46:36;;;;;;;0.40;0.30;;;23.60;77.20;;;;;;6303127;28;20040;-58
2023/09/21 00:49:38;;;;;;;1.15;0.20;;;23.70;77.90;;;;;;6313591;28;20051;-58
2023/09/21 00:52:41;;;;;;;0.40;0.10;;;23.70;77.20;;;;;;6313501;28;20040;-58
2023/09/21 00:55:48;;;;;;;0.25;0.10;;;23.70;76.70;;;;;;6312759;28;20501;-59
2023/09/21 00:58:53;;;;;;;0.60;0.20;;;23.90;76.80;;;;;;6313326;28;20620;-59
2023/09/21 01:02:01;;;;;;;0.20;0.20;;;23.60;76.70;;;;;;6310277;28;20048;-59
2023/09/21 01:05:04;;;;;;;0.60;0.20;;;23.70;76.80;;;;;;6316330;28;20096;-59
2023/09/21 01:08:09;;;;;;;0.57;0.22;;;23.70;76.90;;;;;;6317311;28;20048;-59
2023/09/21 01:11:13;;;;;;;0.17;0.13;;;23.70;76.90;;;;;;6315538;28;20142;-59
2023/09/21 01:14:15;;;;;;;0.20;0.10;;;23.70;77.00;;;;;;6319259;22;20068;-50
2023/09/21 01:17:17;;;;;;;0.70;0.30;;;23.70;77.30;;;;;;6288106;28;20044;-50
2023/09/21 01:20:22;;;;;;;0.30;0.30;;;24.00;77.40;;;;;;6287653;28;20040;-46
2023/09/21 01:23:36;;;;;;;0.75;0.35;;;23.70;77.00;;;;;;6287974;28;20405;-46
2023/09/21 01:26:37;;;;;;;0.20;0.20;;;23.40;76.80;;;;;;6269803;28;20041;-49
2023/09/21 01:29:39;;;;;;;0.28;0.20;;;23.70;77.10;;;;;;6280480;28;20619;-49
2023/09/21 01:32:41;;;;;;;0.30;0.30;;;23.60;77.00;;;;;;6287992;28;20044;-44
2023/09/21 01:35:45;;;;;;;0.30;0.20;;;23.60;76.70;;;;;;6308555;28;20039;-46
2023/09/21 01:38:49;;;;;;;0.20;0.20;;;23.40;76.20;;;;;;6306040;28;20078;-50
2023/09/21 01:41:53;;;;;;;0.20;0.20;;;23.40;76.10;;;;;;6309196;28;20532;-46
2023/09/21 01:44:55;;;;;;;0.63;0.30;;;23.30;75.90;;;;;;6308863;28;20067;-47
2023/09/21 01:47:56;;;;;;;0.63;0.30;;;23.60;75.90;;;;;;6309556;28;20532;-46
2023/09/21 01:50:59;;;;;;;0.20;0.20;;;23.60;75.80;;;;;;6309917;28;20123;-51
2023/09/21 01:54:03;;;;;;;0.50;0.20;;;23.80;75.50;;;;;;6308055;28;20044;-50
2023/09/21 01:57:07;;;;;;;0.28;0.13;;;23.60;75.30;;;;;;6310314;28;20143;-46
2023/09/21 02:00:12;;;;;;;0.55;0.10;;;23.60;75.20;;;;;;6309997;28;20486;-46
2023/09/21 02:03:17;;;;;;;0.22;0.20;;;23.50;75.00;;;;;;6309986;28;20050;-47
2023/09/21 02:06:20;;;;;;;0.10;0.10;;;23.40;74.70;;;;;;6309695;28;20432;-46
2023/09/21 02:09:23;;;;;;;0.17;0.10;;;23.40;74.70;;;;;;6309320;28;20040;-48
2023/09/21 02:12:25;;;;;;;0.30;0.20;;;23.40;74.50;;;;;;6307490;28;20746;-47
2023/09/21 02:15:29;;;;;;;0.40;0.28;;;23.30;74.30;;;;;;6309371;28;20510;-46
2023/09/21 02:18:31;;;;;;;0.20;0.20;;;23.50;74.30;;;;;;6309585;28;20044;-47
2023/09/21 02:21:34;;;;;;;0.20;0.10;;;23.90;74.40;;;;;;6309173;28;20040;-46
2023/09/21 02:24:36;;;;;;;0.10;0.10;;;23.60;73.90;;;;;;6307752;28;20066;-48
2023/09/21 02:27:38;;;;;;;0.35;0.35;;;23.50;73.80;;;;;;6307160;28;20048;-46
2023/09/21 02:30:42;;;;;;;0.22;0.20;;;23.50;73.50;;;;;;6309178;28;20056;-45
2023/09/21 02:33:44;;;;;;;0.30;0.10;;;23.50;73.30;;;;;;6308715;28;20526;-47
2023/09/21 02:36:46;;;;;;;0.10;0.10;;;23.50;73.30;;;;;;6309030;28;20470;-51
2023/09/21 02:39:48;;;;;;;0.20;0.20;;;23.40;73.10;;;;;;6308842;28;20048;-50
2023/09/21 02:42:52;;;;;;;0.13;0.10;;;23.30;72.90;;;;;;6309406;28;20056;-49
2023/09/21 02:45:54;;;;;;;0.20;0.10;;;23.30;72.60;;;;;;6306499;28;20093;-49
2023/09/21 02:48:57;;;;;;;0.17;0.17;;;23.40;72.80;;;;;;6309675;28;20044;-49
2023/09/21 02:52:04;;;;;;;0.20;0.20;;;23.60;70.00;;;;;;6309099;28;20074;-51
2023/09/21 02:55:08;;;;;;;0.10;0.10;;;23.40;72.50;;;;;;6309359;28;20052;-46
2023/09/21 02:58:10;;;;;;;0.38;0.28;;;23.30;72.20;;;;;;6309904;28;20644;-47
2023/09/21 03:01:20;;;;;;;0.28;0.10;;;23.30;72.10;;;;;;6309197;28;20059;-46
2023/09/21 03:04:22;;;;;;;0.25;0.20;;;23.60;72.30;;;;;;6304975;28;20059;-47
2023/09/21 03:07:27;;;;;;;0.17;0.15;;;23.00;71.80;;;;;;6306408;28;20098;-47
2023/09/21 03:10:30;;;;;;;0.20;0.20;;;23.30;72.10;;;;;;6304961;28;20048;-48
2023/09/21 03:13:33;;;;;;;0.20;0.20;;;23.20;71.70;;;;;;6303046;28;20047;-45
2023/09/21 03:16:38;;;;;;;0.17;0.17;;;23.50;72.00;;;;;;6304551;28;20055;-47
2023/09/21 03:19:39;;;;;;;0.13;0.10;;;23.30;71.80;;;;;;6291880;28;20051;-46
2023/09/21 03:22:42;;;;;;;0.10;0.10;;;23.40;71.70;;;;;;6279453;28;20584;-49
2023/09/21 03:25:51;;;;;;;0.20;0.20;;;23.00;71.40;;;;;;6278922;28;20083;-51
2023/09/21 03:28:54;;;;;;;0.20;0.20;;;23.10;71.20;;;;;;6279599;28;20049;-49
2023/09/21 03:31:56;;;;;;;0.60;0.20;;;23.20;71.30;;;;;;6278762;28;20078;-49
2023/09/21 03:34:58;;;;;;;0.43;0.20;;;23.10;71.20;;;;;;6279253;28;20099;-44
2023/09/21 03:38:00;;;;;;;0.30;0.20;;;23.20;71.00;;;;;;6278159;28;20552;-46
2023/09/21 03:41:02;;;;;;;0.25;0.20;;;23.30;71.20;;;;;;6278248;28;20365;-48
2023/09/21 03:44:05;;;;;;;0.90;0.20;;;23.20;71.00;;;;;;6279565;28;20096;-45
2023/09/21 03:47:11;;;;;;;0.40;0.20;;;23.20;71.00;;;;;;6281548;28;20056;-49
2023/09/21 03:50:14;;;;;;;0.10;0.10;;;23.30;71.00;;;;;;6299020;28;20040;-49
2023/09/21 03:53:16;;;;;;;0.13;0.13;;;23.60;71.20;;;;;;6281811;28;20068;-51
2023/09/21 03:56:19;;;;;;;0.32;0.30;;;23.20;70.90;;;;;;6281884;28;20689;-47
2023/09/21 03:59:21;;;;;;;0.20;0.20;;;23.10;70.70;;;;;;6286401;28;20048;-46
2023/09/21 04:02:22;;;;;;;0.20;0.20;;;23.10;70.50;;;;;;6306063;28;20864;-49
2023/09/21 04:05:26;;;;;;;0.20;0.10;;;23.10;70.80;;;;;;6311605;28;20048;-49
2023/09/21 04:08:28;;;;;;;0.15;0.10;;;23.00;70.50;;;;;;6312133;28;20048;-47
2023/09/21 04:11:30;;;;;;;0.28;0.15;;;23.30;67.90;;;;;;6310203;28;20829;-48
2023/09/21 04:14:32;;;;;;;0.25;0.20;;;23.10;70.50;;;;;;6310651;28;20075;-48
2023/09/21 04:17:34;;;;;;;0.20;0.20;;;22.90;70.50;;;;;;6309307;28;20040;-45
2023/09/21 04:20:39;;;;;;;0.20;0.20;;;23.00;70.50;;;;;;6310083;28;20757;-48
2023/09/21 04:23:42;;;;;;;0.20;0.10;;;23.00;70.30;;;;;;6312533;28;20537;-44
2023/09/21 04:26:45;;;;;;;0.20;0.20;;;23.10;70.50;;;;;;6310033;28;20047;-46
2023/09/21 04:29:49;;;;;;;0.20;0.10;;;23.20;70.60;;;;;;6310439;28;20598;-46
2023/09/21 04:32:51;;;;;;;0.28;0.20;;;22.60;70.20;;;;;;6312727;28;20052;-47
2023/09/21 04:35:54;;;;;;;0.43;0.25;;;23.00;70.30;;;;;;6313587;28;20059;-48
2023/09/21 04:38:55;;;;;;;0.30;0.20;;;23.10;70.40;;;;;;6313191;28;20044;-49
2023/09/21 04:41:58;;;;;;;0.40;0.20;;;23.10;70.40;;;;;;6312796;28;20052;-49
2023/09/21 04:45:01;;;;;;;0.40;0.20;;;23.00;70.20;;;;;;6312478;28;20052;-47
2023/09/21 04:48:05;;;;;;;0.30;0.20;;;23.10;70.30;;;;;;6313240;28;20588;-44
2023/09/21 04:51:14;;;;;;;0.10;0.10;;;23.10;70.30;;;;;;6312473;28;20056;-47
2023/09/21 04:54:18;;;;;;;0.47;0.30;;;23.20;70.30;;;;;;6312213;28;20052;-47
2023/09/21 04:57:22;;;;;;;0.15;0.15;;;23.10;70.30;;;;;;6314322;28;20437;-44
2023/09/21 05:00:24;;;;;;;0.20;0.20;;;23.20;70.30;;;;;;6312158;28;20048;-46
2023/09/21 05:03:26;;;;;;;0.13;0.13;;;22.90;70.10;;;;;;6312815;28;20055;-45
2023/09/21 05:06:30;;;;;;;0.20;0.13;;;23.10;70.30;;;;;;6314311;28;20048;-46
2023/09/21 05:09:34;;;;;;;0.20;0.20;;;22.90;70.10;;;;;;6314434;28;20051;-46
2023/09/21 05:12:36;;;;;;;0.20;0.20;;;23.00;70.10;;;;;;6313929;28;20116;-46
2023/09/21 05:15:37;;;;;;;0.25;0.20;;;22.90;69.90;;;;;;6313614;28;20052;-46
2023/09/21 05:18:42;;;;;;;0.15;0.15;;;22.90;70.00;;;;;;6314293;28;20052;-47
2023/09/21 05:21:44;;;;;;;0.15;0.10;;;23.10;70.00;;;;;;6313638;28;20047;-46
2023/09/21 05:24:45;;;;;;;0.25;0.20;;;23.00;70.00;;;;;;6312231;28;20044;-49
2023/09/21 05:27:47;;;;;;;0.20;0.20;;;22.70;69.80;;;;;;6313573;28;20052;-47
2023/09/21 05:30:54;;;;;;;0.20;0.10;;;23.00;70.00;;;;;;6269320;28;20498;-44
2023/09/21 05:33:56;;;;;;;0.20;0.20;;;22.90;69.80;;;;;;6263919;28;20056;-45
2023/09/21 05:36:58;;;;;;;0.57;0.20;;;23.00;70.00;;;;;;6263754;28;20574;-49
2023/09/21 05:40:00;;;;;;;0.20;0.20;;;23.00;69.80;;;;;;6263854;28;20091;-47
2023/09/21 05:43:02;;;;;;;0.20;0.20;;;23.00;69.80;;;;;;6280048;28;20127;-47
2023/09/21 05:46:03;;;;;;;0.55;0.20;;;23.00;69.70;;;;;;6289074;28;20044;-46
2023/09/21 05:49:07;;;;;;;0.20;0.20;;;23.30;70.00;;;;;;6287703;28;20040;-51
2023/09/21 05:52:12;;;;;;;0.40;0.20;;;23.10;69.60;;;;;;6287071;28;20087;-45
2023/09/21 05:55:16;;;;;;;0.10;0.10;;;23.00;69.70;;;;;;6288370;28;20421;-45
2023/09/21 05:58:18;;;;;;;0.10;0.10;;;22.90;69.60;;;;;;6288903;28;20094;-46
2023/09/21 06:01:20;;;;;;;0.10;0.10;;;22.90;69.60;;;;;;6288255;28;20560;-49
2023/09/21 06:04:22;;;;;;;0.15;0.15;;;22.60;69.50;;;;;;6288110;28;20052;-50
2023/09/21 06:07:24;;;;;;;0.73;0.17;;;22.90;69.70;;;;;;6285357;28;20501;-46
2023/09/21 06:10:30;;;;;;;0.20;0.20;;;22.90;69.50;;;;;;6286761;28;20040;-46
2023/09/21 06:13:32;;;;;;;0.35;0.20;;;23.10;69.80;;;;;;6287404;28;20052;-51
2023/09/21 06:16:35;;;;;;;0.00;0.00;;;22.80;69.40;;;;;;6270701;28;20128;-46
2023/09/21 06:19:38;;;;;;;0.30;0.20;;;22.90;69.80;;;;;;6283987;28;20094;-49
2023/09/21 06:22:39;;;;;;;0.20;0.17;;;22.70;69.60;;;;;;6285666;28;20395;-45
2023/09/21 06:25:42;;;;;;;1.17;0.30;;;22.90;69.90;;;;;;6286419;28;20402;-48
2023/09/21 06:28:47;;;;;;;0.60;0.30;;;23.10;70.10;;;;;;6286580;28;20048;-49
2023/09/21 06:31:49;;;;;;;0.10;0.10;;;22.80;69.60;;;;;;6285997;28;20048;-47
2023/09/21 06:35:14;;;;;;;0.30;0.20;;;22.80;69.50;;;;;;6284469;28;20098;-50
2023/09/21 06:38:15;;;;;;;0.30;0.20;;;22.70;69.60;;;;;;6285077;28;20040;-49
2023/09/21 06:41:19;;;;;;;0.25;0.25;;;23.20;69.80;;;;;;6285200;28;20059;-48
2023/09/21 06:44:22;;;;;;;0.30;0.10;;;22.90;69.50;;;;;;6285930;28;20076;-49
2023/09/21 06:47:26;;;;;;;0.30;0.20;;;22.80;67.50;;;;;;6286159;28;20150;-48
2023/09/21 06:50:28;;;;;;;0.90;0.30;;;22.90;69.60;;;;;;6284421;28;20090;-45
2023/09/21 06:53:30;;;;;;;1.48;0.30;;;22.90;69.50;;;;;;6281131;28;20048;-46
2023/09/21 06:56:32;;;;;;;0.32;0.28;;;23.00;68.50;;;;;;6281184;28;20044;-46
2023/09/21 06:59:34;;;;;;;1.85;0.47;;;23.00;68.60;;;;;;6283263;28;20084;-51
2023/09/21 07:02:36;;;;;;;0.22;0.20;;;22.60;68.40;;;;;;6297465;28;20052;-51
2023/09/21 07:05:40;;;;;;;0.32;0.32;;;22.80;69.20;;;;;;6297722;28;20046;-50
2023/09/21 07:08:41;;;;;;;1.25;0.20;;;22.60;68.50;;;;;;6291155;28;20083;-46
2023/09/21 07:11:43;;;;;;;2.35;0.40;;;22.80;68.50;;;;;;6283180;28;20969;-51
2023/09/21 07:14:46;;;;;;;1.58;0.20;;;22.90;69.20;;;;;;6280959;28;20795;-48
